Flight Track Log - Related Links

Times and Time Zones

All times are in EST time to prevent confusion due to time zone crossing. See the FLG4262 flight status page for this flight to view local times or setup timezone preferences in your user account.

Time Position Orientation Groundspeed Altitude Reporting Facility
EST Latitude Longitude Course Direction KTS MPH feet Rate Location/Type
Tue 03:59:39 PM 42.2008 -83.3550 90° East 172 198 1,200  Level Cleveland Center
Tue 03:59:52 PM 42.1922 -83.3567 188° South 171 197 1,800 2,514 Climbing Cleveland Center
Tue 04:00:53 PM 42.1358 -83.3544 178° South 208 239 4,300 2,231 Climbing Cleveland Center
Tue 04:01:10 PM 42.1242 -83.3478 157° South 203 234 4,700 1,770 Climbing Cleveland Center
Tue 04:01:54 PM 42.0736 -83.3175 156° South 289 333 6,100 2,226 Climbing Cleveland Center
Tue 04:02:12 PM 42.0547 -83.2989 144° Southeast 263 303 7,000 2,625 Climbing Cleveland Center
Tue 04:03:14 PM 42.0614 -83.2006 85° East 276 318 9,600 1,645 Climbing Cleveland Center
Tue 04:04:16 PM 42.0972 -83.1114 62° Northeast 290 334 10,400 1,500 Climbing Cleveland Center
Tue 04:05:00 PM 42.2378 -82.4311 90° East  Level Estimated
Tue 04:05:18 PM 42.1406 -83.0069 61° Northeast 313 360 12,700  Level Cleveland Center
Tue 04:06:20 PM 42.1956 -82.8750 61° Northeast 335 386 14,700 1,680 Climbing Cleveland Center
Tue 04:07:23 PM 42.2442 -82.7578 61° Northeast 355 409 16,200 1,488 Climbing Cleveland Center
Tue 04:08:25 PM 42.2944 -82.6353 61° Northeast 373 429 17,800 1,210 Climbing Cleveland Center
Tue 04:09:27 PM 42.3458 -82.5108 61° Northeast 381 438 18,700 968 Climbing Cleveland Center
Tue 04:10:29 PM 42.3653 -82.3658 80° East 408 470 19,800 1,210 Climbing Cleveland Center
Tue 04:11:31 PM 42.3575 -82.1761 93° East 420 483 21,200 1,161 Climbing Cleveland Center
Tue 04:12:33 PM 42.3503 -82.0192 94° East 427 491 22,200 968 Climbing Cleveland Center
Tue 04:13:35 PM 42.3425 -81.8539 94° East 433 498 23,200 823 Climbing Cleveland Center
Tue 04:14:37 PM 42.3356 -81.6847 93° East 443 510 23,900 581 Climbing Cleveland Center
Tue 04:15:39 PM 42.3275 -81.5103 94° East 457 526 24,400 484 Climbing Cleveland Center
Tue 04:16:41 PM 42.3183 -81.3308 94° East 471 542 24,900 532 Climbing Cleveland Center
Tue 04:17:43 PM 42.3083 -81.1186 94° East 479 551 25,500 532 Climbing Cleveland Center
Tue 04:18:45 PM 42.2986 -80.9347 94° East 485 558 26,000 528 Climbing Cleveland Center
Tue 04:19:48 PM 42.2894 -80.7494 94° East 488 562 26,600 480 Climbing Cleveland Center
Tue 04:20:50 PM 42.2792 -80.5633 94° East 490 564 27,000 194 Climbing Cleveland Center
Tue 04:21:52 PM 42.2683 -80.3739 94° East 497 572 27,000  Level Cleveland Center
Tue 04:22:54 PM 42.2569 -80.1808 94° East 508 585 27,000  Level Cleveland Center
Tue 04:23:56 PM 42.2442 -79.9797 95° East 511 588 27,000  Level Cleveland Center
Tue 04:24:58 PM 42.2325 -79.7928 95° East 504 580 27,000  Level Cleveland Center
Tue 04:26:00 PM 42.2208 -79.6025 95° East 510 587 27,000  Level Cleveland Center
Tue 04:27:02 PM 42.2053 -79.3753 95° East 509 586 27,000  Level Cleveland Center
Tue 04:28:04 PM 42.1914 -79.1861 96° East 510 587 27,000  Level Cleveland Center
Tue 04:29:06 PM 42.1897 -78.9956 91° East 507 583 27,000  Level Cleveland Center
Tue 04:30:08 PM 42.1953 -78.8131 88° East 506 582 27,000 -192 Level Cleveland Center
Tue 04:31:11 PM 42.1981 -78.6225 89° East 509 586 26,600 -960 Descending Cleveland Center
Tue 04:32:13 PM 42.2011 -78.3944 89° East 511 588 25,000 -774 Descending Cleveland Center
Tue 04:33:15 PM 42.2033 -78.2131 89° East 494 568 25,000 -629 Level Cleveland Center
Tue 04:34:17 PM 42.2050 -78.0342 89° East 484 557 23,700 -1,355 Descending Cleveland Center
Tue 04:35:19 PM 42.2067 -77.8511 89° East 491 565 22,200 -1,452 Descending Cleveland Center
Tue 04:36:21 PM 42.2086 -77.6694 89° East 492 566 20,700 -1,597 Descending Cleveland Center
Tue 04:37:23 PM 42.2086 -77.4631 90° East 469 540 18,900 -1,452 Descending Cleveland Center
Tue 04:38:25 PM 42.2108 -77.3042 89° East 435 501 17,700 -871 Descending Cleveland Center
Tue 04:39:27 PM 42.2111 -77.1494 90° East 418 481 17,100 -581 Descending Cleveland Center
Tue 04:40:29 PM 42.2108 -76.9958 90° East 415 478 16,500 -1,258 Descending Cleveland Center
Tue 04:41:31 PM 42.2106 -76.8444 90° East 407 468 14,500 -1,920 Descending Cleveland Center
Tue 04:42:34 PM 42.1994 -76.6744 95° East 382 440 12,500 -1,776 Descending Cleveland Center
Tue 04:43:36 PM 42.1856 -76.5450 98° East 355 409 10,800 -1,597 Descending Cleveland Center
Tue 04:44:38 PM 42.1731 -76.4308 98° East 314 361 9,200 -1,752 Descending Cleveland Center
Tue 04:45:29 PM 42.1594 -76.3322 101° East 307 353 7,500 -1,892 Descending New York Center
Tue 04:46:29 PM 42.1475 -76.2306 99° East 287 330 5,700 -1,750 Descending New York Center
Tue 04:47:29 PM 42.1372 -76.1403 99° East 259 298 4,000 -900 Descending New York Center
Tue 04:48:29 PM 42.1283 -76.0583 98° East 237 273 3,900 -150 Descending New York Center
Tue 04:49:29 PM 42.1153 -75.9792 103° East 225 259 3,700 -400 Descending New York Center
Tue 04:50:29 PM 42.1361 -75.9306 60° Northeast 171 197 3,100 -650 Descending New York Center
Tue 04:51:29 PM 42.1706 -75.9500 337° Northwest 87 100 2,400 -500 Descending New York Center
Tue 04:52:29 PM 42.1911 -75.9572 345° North 87 100 2,100 -300 Descending New York Center

Login

Don't have an account? Register now (free) for customized features, flight alerts, and more!